createdAt,value
2023-02-15T00:00:33.890Z,27.58
2023-02-15T00:02:35.415Z,27.33
2023-02-15T00:04:49.267Z,29.77
2023-02-15T00:06:51.205Z,28.35
2023-02-15T00:08:54.192Z,26.02
2023-02-15T00:11:15.326Z,27.85
2023-02-15T00:13:16.840Z,23.20
2023-02-15T00:15:18.403Z,25.55
2023-02-15T00:17:19.942Z,26.67
2023-02-15T00:19:22.284Z,37.75
2023-02-15T00:21:23.809Z,27.98
2023-02-15T00:23:27.344Z,27.30
2023-02-15T00:25:28.900Z,27.10
2023-02-15T00:27:30.373Z,28.65
2023-02-15T00:29:32.666Z,30.35
2023-02-15T00:31:35.479Z,26.48
2023-02-15T00:33:37.961Z,34.63
2023-02-15T00:35:39.440Z,33.15
2023-02-15T00:37:40.977Z,24.58
2023-02-15T00:39:42.477Z,24.88
2023-02-15T00:41:44.453Z,28.13
2023-02-15T00:43:45.971Z,28.60
2023-02-15T00:45:47.670Z,31.65
2023-02-15T00:47:49.150Z,27.13
2023-02-15T00:49:50.658Z,28.00
2023-02-15T00:51:52.180Z,27.17
2023-02-15T00:53:53.742Z,27.02
2023-02-15T00:55:55.523Z,29.13
2023-02-15T00:57:57.062Z,28.17
2023-02-15T00:59:58.549Z,28.95
2023-02-15T01:02:00.105Z,30.52
2023-02-15T01:04:02.683Z,30.27
2023-02-15T01:06:05.242Z,31.20
2023-02-15T01:08:06.871Z,30.10
2023-02-15T01:10:08.841Z,30.42
2023-02-15T01:12:10.336Z,28.73
2023-02-15T01:14:12.062Z,27.92
2023-02-15T01:16:13.616Z,27.23
2023-02-15T01:18:15.865Z,30.05
2023-02-15T01:20:25.145Z,31.13
2023-02-15T01:22:26.783Z,29.45
2023-02-15T01:24:28.309Z,27.67
2023-02-15T01:26:29.856Z,29.08
2023-02-15T01:28:32.358Z,27.95
2023-02-15T01:30:34.362Z,28.05
2023-02-15T01:32:36.102Z,29.20
2023-02-15T01:34:37.633Z,28.63
2023-02-15T01:36:39.176Z,29.42
2023-02-15T01:38:41.209Z,28.35
2023-02-15T01:40:42.918Z,27.70
2023-02-15T01:42:45.225Z,27.33
2023-02-15T01:44:46.727Z,28.63
2023-02-15T01:46:53.951Z,27.95
2023-02-15T01:49:01.090Z,29.23
2023-02-15T01:51:03.430Z,28.65
2023-02-15T01:53:05.115Z,28.02
2023-02-15T01:55:09.372Z,30.52
2023-02-15T01:57:14.905Z,28.58
2023-02-15T01:59:21.654Z,28.80
2023-02-15T02:01:23.538Z,29.63
2023-02-15T02:04:10.379Z,29.55
2023-02-15T02:06:12.049Z,26.80
2023-02-15T02:08:13.725Z,27.90
2023-02-15T02:10:19.711Z,29.27
2023-02-15T02:12:22.984Z,28.25
2023-02-15T02:14:25.582Z,28.52
2023-02-15T02:16:53.458Z,26.08
2023-02-15T02:19:03.965Z,28.17
2023-02-15T02:21:23.713Z,27.83
2023-02-15T02:25:51.187Z,27.77
2023-02-15T02:28:17.617Z,29.30
2023-02-15T02:30:37.798Z,30.80
2023-02-15T02:33:10.004Z,30.75
2023-02-15T02:35:43.977Z,32.70
2023-02-15T02:38:01.062Z,37.97
2023-02-15T02:40:29.209Z,31.60
2023-02-15T02:42:41.261Z,34.13
2023-02-15T02:45:06.311Z,30.63
2023-02-15T02:47:25.061Z,29.77
2023-02-15T02:49:37.945Z,30.60
2023-02-15T02:51:39.444Z,32.80
2023-02-15T02:53:41.549Z,32.38
2023-02-15T02:55:48.313Z,33.47
2023-02-15T02:58:06.486Z,30.70
2023-02-15T03:00:09.610Z,30.98
2023-02-15T03:02:27.014Z,31.00
2023-02-15T03:04:33.716Z,27.15
2023-02-15T03:06:44.505Z,28.52
2023-02-15T03:08:54.923Z,27.23
2023-02-15T03:10:59.691Z,32.53
2023-02-15T03:13:01.476Z,26.92
2023-02-15T03:15:19.077Z,29.70
2023-02-15T03:17:23.675Z,28.92
2023-02-15T03:19:31.917Z,30.00
2023-02-15T03:21:39.546Z,32.78
2023-02-15T03:23:41.254Z,28.45
2023-02-15T03:25:52.872Z,28.25
2023-02-15T03:27:59.883Z,32.15
2023-02-15T03:30:03.126Z,29.27
2023-02-15T03:32:08.475Z,25.90
2023-02-15T03:34:14.776Z,26.30
2023-02-15T03:36:24.132Z,27.02
2023-02-15T03:38:54.663Z,27.17
2023-02-15T03:41:12.546Z,32.22
2023-02-15T03:43:20.179Z,29.90
2023-02-15T03:45:28.511Z,31.38
2023-02-15T03:47:34.789Z,29.70
2023-02-15T03:49:48.454Z,29.88
2023-02-15T03:51:52.653Z,30.88
2023-02-15T03:53:55.882Z,28.65
2023-02-15T03:55:57.686Z,29.33
2023-02-15T03:58:17.697Z,28.63
2023-02-15T04:00:43.726Z,27.80
2023-02-15T04:03:08.383Z,29.13
2023-02-15T04:05:10.014Z,31.35
2023-02-15T04:07:11.840Z,29.17
2023-02-15T04:09:32.516Z,28.83
2023-02-15T04:11:34.046Z,29.45
2023-02-15T04:13:35.604Z,31.17
2023-02-15T04:15:55.546Z,28.25
2023-02-15T04:17:57.058Z,27.70
2023-02-15T04:20:17.244Z,29.30
2023-02-15T04:22:37.104Z,31.20
2023-02-15T04:24:56.956Z,30.67
2023-02-15T04:26:59.307Z,31.00
2023-02-15T04:29:00.775Z,27.23
2023-02-15T04:31:02.286Z,30.98
2023-02-15T04:33:03.856Z,32.33
2023-02-15T04:35:06.727Z,30.42
2023-02-15T04:37:08.262Z,29.63
2023-02-15T04:39:10.155Z,28.30
2023-02-15T04:41:13.341Z,27.77
2023-02-15T04:43:14.833Z,22.10
2023-02-15T04:45:16.478Z,28.67
2023-02-15T04:47:18.080Z,28.52
2023-02-15T04:49:19.600Z,31.23
2023-02-15T04:51:21.593Z,30.38
2023-02-15T04:53:23.193Z,31.75
2023-02-15T04:55:24.764Z,32.35
2023-02-15T04:57:26.341Z,32.55
2023-02-15T04:59:28.276Z,39.42
2023-02-15T05:01:29.836Z,36.47
2023-02-15T05:03:31.367Z,31.00
2023-02-15T05:05:32.882Z,32.08
2023-02-15T05:07:34.385Z,32.25
2023-02-15T05:09:35.924Z,34.08
2023-02-15T05:11:37.442Z,38.35
2023-02-15T05:13:38.966Z,39.63
2023-02-15T05:15:40.492Z,33.22
2023-02-15T05:17:42.106Z,34.03
2023-02-15T05:19:43.668Z,37.15
2023-02-15T05:21:45.172Z,42.65
2023-02-15T05:23:46.776Z,30.05
2023-02-15T05:26:10.843Z,29.85
2023-02-15T05:28:21.583Z,52.67
2023-02-15T05:30:23.169Z,31.45
2023-02-15T05:32:25.017Z,33.28
2023-02-15T05:34:26.632Z,32.83
2023-02-15T05:36:29.262Z,30.75
2023-02-15T05:38:31.452Z,53.95
2023-02-15T05:40:33.300Z,56.83
2023-02-15T05:42:34.971Z,79.20
2023-02-15T05:44:36.469Z,54.20
2023-02-15T05:46:37.999Z,47.42
2023-02-15T05:48:39.829Z,61.38
2023-02-15T05:50:41.500Z,51.70
2023-02-15T05:52:43.024Z,38.35
2023-02-15T05:54:44.522Z,37.15
2023-02-15T05:56:46.039Z,63.40
2023-02-15T05:58:47.553Z,45.95
2023-02-15T06:00:49.166Z,97.50
2023-02-15T06:02:50.652Z,38.53
2023-02-15T06:04:52.143Z,39.53
2023-02-15T06:06:53.686Z,41.58
2023-02-15T06:08:55.202Z,32.92
2023-02-15T06:10:56.693Z,29.58
2023-02-15T06:12:58.252Z,35.33
2023-02-15T06:14:59.768Z,30.20
2023-02-15T06:17:01.294Z,31.80
2023-02-15T06:19:03.696Z,38.78
2023-02-15T06:21:05.268Z,33.33
2023-02-15T06:23:06.798Z,39.80
2023-02-15T06:25:11.094Z,31.48
2023-02-15T06:27:12.690Z,33.00
2023-02-15T06:29:14.211Z,30.33
2023-02-15T06:31:16.359Z,175.85
2023-02-15T06:33:17.957Z,69.18
2023-02-15T06:35:19.544Z,33.45
2023-02-15T06:37:21.131Z,22.77
2023-02-15T06:39:22.738Z,26.25
2023-02-15T06:41:24.666Z,82.78
2023-02-15T06:43:26.203Z,78.35
2023-02-15T06:45:27.820Z,41.90
2023-02-15T06:47:29.336Z,40.47
2023-02-15T06:49:30.874Z,30.58
2023-02-15T06:51:32.376Z,36.05
2023-02-15T06:53:34.003Z,34.67
2023-02-15T06:55:35.601Z,38.88
2023-02-15T06:57:37.485Z,32.67
2023-02-15T06:59:38.997Z,35.65
2023-02-15T07:01:40.530Z,36.10
2023-02-15T07:03:42.173Z,40.00
2023-02-15T07:05:44.666Z,34.22
2023-02-15T07:07:46.252Z,39.50
2023-02-15T07:09:47.838Z,34.58
2023-02-15T07:12:07.711Z,30.65
2023-02-15T07:14:09.234Z,28.73
2023-02-15T07:16:11.484Z,17.05
2023-02-15T07:18:13.247Z,32.30
2023-02-15T07:20:18.339Z,34.38
2023-02-15T07:22:19.873Z,33.90
2023-02-15T07:24:21.393Z,30.33
2023-02-15T07:26:22.947Z,46.47
2023-02-15T07:28:24.458Z,46.83
2023-02-15T07:30:26.373Z,28.15
2023-02-15T07:32:32.662Z,33.28
2023-02-15T07:34:34.340Z,72.00
2023-02-15T07:36:35.918Z,44.92
2023-02-15T07:38:39.815Z,41.50
2023-02-15T07:40:41.318Z,27.95
2023-02-15T07:42:42.810Z,44.47
2023-02-15T07:44:44.905Z,39.85
2023-02-15T07:46:46.486Z,31.17
2023-02-15T07:48:48.390Z,24.83
2023-02-15T07:50:49.926Z,31.55
2023-02-15T07:52:51.533Z,35.60
2023-02-15T07:54:53.110Z,40.10
2023-02-15T07:56:54.625Z,30.88
2023-02-15T07:58:58.736Z,39.72
2023-02-15T08:01:02.736Z,31.02
2023-02-15T08:03:16.496Z,31.20
2023-02-15T08:05:19.348Z,24.42
2023-02-15T08:07:21.099Z,35.50
2023-02-15T08:09:23.131Z,18.73
2023-02-15T08:11:26.886Z,23.83
2023-02-15T08:13:28.378Z,31.10
2023-02-15T08:15:29.874Z,24.20
2023-02-15T08:17:31.381Z,23.42
2023-02-15T08:19:34.065Z,30.27
2023-02-15T08:21:38.285Z,34.13
2023-02-15T08:23:39.913Z,30.70
2023-02-15T08:25:41.457Z,35.60
2023-02-15T08:27:42.929Z,36.70
2023-02-15T08:29:44.516Z,42.78
2023-02-15T08:31:46.617Z,37.03
2023-02-15T08:33:50.493Z,32.47
2023-02-15T08:35:52.001Z,29.95
2023-02-15T08:37:53.606Z,32.25
2023-02-15T08:39:55.478Z,26.95
2023-02-15T08:41:57.007Z,32.75
2023-02-15T08:44:01.355Z,28.58
2023-02-15T08:46:03.080Z,24.70
2023-02-15T08:48:04.765Z,30.20
2023-02-15T08:50:06.770Z,25.10
2023-02-15T08:52:08.291Z,26.17
2023-02-15T08:54:12.886Z,39.92
2023-02-15T08:56:14.420Z,42.33
2023-02-15T08:58:15.934Z,31.08
2023-02-15T09:00:18.204Z,29.90
2023-02-15T09:02:19.736Z,59.67
2023-02-15T09:04:21.916Z,28.88
2023-02-15T09:06:24.289Z,119.47
2023-02-15T09:08:26.680Z,34.15
2023-02-15T09:10:28.295Z,44.33
2023-02-15T09:12:29.810Z,31.52
2023-02-15T09:14:31.326Z,21.85
2023-02-15T09:16:35.682Z,41.92
2023-02-15T09:18:39.225Z,25.88
2023-02-15T09:20:40.732Z,23.65
2023-02-15T09:22:42.250Z,24.95
2023-02-15T09:24:43.899Z,28.65
2023-02-15T09:26:47.831Z,31.98
2023-02-15T09:28:53.431Z,32.05
2023-02-15T09:30:54.972Z,30.23
2023-02-15T09:32:56.477Z,30.98
2023-02-15T09:34:58.001Z,22.92
2023-02-15T09:36:59.526Z,22.17
2023-02-15T09:39:14.545Z,27.83
2023-02-15T09:41:42.325Z,28.10
2023-02-15T09:44:09.561Z,29.52
2023-02-15T09:46:37.462Z,24.50
2023-02-15T09:48:43.417Z,34.40
2023-02-15T09:50:54.314Z,42.78
2023-02-15T09:53:01.959Z,60.33
2023-02-15T09:55:23.151Z,67.38
2023-02-15T09:57:36.143Z,51.90
2023-02-15T09:59:43.604Z,58.22
2023-02-15T10:02:09.295Z,33.25
2023-02-15T10:04:27.050Z,45.67
2023-02-15T10:06:32.593Z,34.70
2023-02-15T10:09:14.486Z,47.75
2023-02-15T10:11:54.514Z,39.53
2023-02-15T10:14:05.749Z,26.90
2023-02-15T10:16:13.240Z,32.45
2023-02-15T10:18:43.697Z,50.38
2023-02-15T10:20:55.770Z,26.73
2023-02-15T10:23:03.473Z,38.22
2023-02-15T10:25:25.368Z,23.98
2023-02-15T10:27:31.063Z,32.00
2023-02-15T10:29:39.440Z,35.95
2023-02-15T10:31:57.852Z,31.90
2023-02-15T10:34:20.751Z,35.10
2023-02-15T10:36:43.551Z,50.63
2023-02-15T10:39:06.088Z,43.92
2023-02-15T10:41:28.145Z,36.90
2023-02-15T10:43:50.278Z,23.75
2023-02-15T10:46:15.897Z,33.55
2023-02-15T10:48:35.559Z,51.53
2023-02-15T10:53:15.978Z,30.52
2023-02-15T10:55:39.347Z,29.90
2023-02-15T10:58:02.083Z,44.42
2023-02-15T11:00:17.115Z,40.13
2023-02-15T11:02:43.027Z,17.45
2023-02-15T11:04:50.494Z,30.33
2023-02-15T11:06:55.840Z,46.42
2023-02-15T11:09:03.351Z,131.15
2023-02-15T11:11:09.395Z,48.92
2023-02-15T11:13:16.864Z,39.00
2023-02-15T11:15:36.444Z,45.42
2023-02-15T11:17:43.901Z,25.52
2023-02-15T11:20:30.487Z,31.05
2023-02-15T11:22:34.297Z,50.22
2023-02-15T11:24:44.703Z,51.45
2023-02-15T11:26:58.273Z,28.70
2023-02-15T11:29:01.877Z,27.10
2023-02-15T11:31:14.365Z,24.90
2023-02-15T11:33:29.019Z,34.40
2023-02-15T11:35:41.457Z,32.28
2023-02-15T11:38:18.211Z,30.55
2023-02-15T11:40:37.392Z,29.70
2023-02-15T11:42:39.589Z,24.05
2023-02-15T11:44:59.546Z,31.52
2023-02-15T11:47:02.592Z,79.50
2023-02-15T11:49:21.016Z,65.40
2023-02-15T11:51:24.417Z,66.10
2023-02-15T11:53:29.765Z,82.05
2023-02-15T11:55:32.089Z,44.90
2023-02-15T11:57:45.074Z,64.95
2023-02-15T12:00:01.166Z,64.85
2023-02-15T12:02:02.761Z,36.60
2023-02-15T12:04:19.335Z,52.25
2023-02-15T12:06:29.762Z,35.20
2023-02-15T12:08:41.392Z,78.65
2023-02-15T12:11:13.511Z,49.67
2023-02-15T12:13:17.724Z,63.35
2023-02-15T12:15:32.380Z,42.58
2023-02-15T12:17:36.841Z,37.22
2023-02-15T12:19:41.655Z,29.35
2023-02-15T12:21:43.464Z,29.15
2023-02-15T12:23:57.056Z,29.98
2023-02-15T12:25:59.369Z,26.27
2023-02-15T12:28:00.986Z,34.63
2023-02-15T12:30:17.753Z,35.17
2023-02-15T12:32:32.601Z,98.13
2023-02-15T12:34:40.684Z,53.83
2023-02-15T12:36:51.820Z,25.63
2023-02-15T12:39:12.358Z,24.77
2023-02-15T12:41:26.100Z,28.88
2023-02-15T12:43:33.081Z,25.77
2023-02-15T12:45:38.392Z,33.65
2023-02-15T12:47:40.084Z,30.60
2023-02-15T12:49:47.472Z,24.95
2023-02-15T12:51:53.914Z,29.20
2023-02-15T12:53:55.426Z,30.77
2023-02-15T12:56:05.325Z,31.55
2023-02-15T12:58:24.034Z,32.97
2023-02-15T13:00:29.464Z,61.63
2023-02-15T13:02:35.881Z,102.30
2023-02-15T13:04:37.900Z,58.92
2023-02-15T13:06:49.708Z,35.38
2023-02-15T13:08:54.767Z,27.60
2023-02-15T13:11:05.406Z,27.02
2023-02-15T13:13:24.129Z,22.63
2023-02-15T13:15:33.970Z,26.15
2023-02-15T13:19:50.006Z,25.33
2023-02-15T13:21:53.356Z,20.95
2023-02-15T13:24:01.140Z,19.67
2023-02-15T13:26:09.582Z,28.67
2023-02-15T13:28:16.258Z,24.67
2023-02-15T13:30:26.012Z,29.02
2023-02-15T13:34:37.954Z,27.02
2023-02-15T13:36:51.626Z,29.23
2023-02-15T13:39:11.631Z,28.60
2023-02-15T13:41:24.370Z,30.17
2023-02-15T13:43:50.315Z,33.13
2023-02-15T13:46:07.220Z,23.50
2023-02-15T13:48:20.723Z,29.48
2023-02-15T13:50:31.137Z,25.63
2023-02-15T13:52:42.646Z,28.50
2023-02-15T13:54:54.542Z,38.08
2023-02-15T13:57:17.709Z,26.73
2023-02-15T13:59:47.316Z,33.00
2023-02-15T14:01:54.800Z,26.00
2023-02-15T14:04:03.103Z,25.45
2023-02-15T14:06:18.719Z,30.67
2023-02-15T14:08:20.228Z,34.85
2023-02-15T14:10:30.828Z,29.73
2023-02-15T14:12:41.230Z,36.75
2023-02-15T14:15:04.193Z,28.80
2023-02-15T14:17:11.878Z,29.40
2023-02-15T14:19:25.425Z,28.15
2023-02-15T14:21:38.240Z,35.72
2023-02-15T14:24:29.454Z,26.65
2023-02-15T14:26:33.622Z,27.10
2023-02-15T14:28:44.305Z,24.40
2023-02-15T14:30:49.754Z,22.95
2023-02-15T14:33:06.795Z,19.05
2023-02-15T14:35:21.076Z,20.92
2023-02-15T14:37:32.115Z,29.02
2023-02-15T14:40:11.805Z,24.90
2023-02-15T14:42:26.266Z,24.60
2023-02-15T14:44:41.296Z,31.00
2023-02-15T14:47:14.476Z,31.90
2023-02-15T14:49:27.765Z,30.20
2023-02-15T14:51:43.784Z,38.83
2023-02-15T14:53:45.344Z,34.65
2023-02-15T14:55:46.873Z,31.77
2023-02-15T14:57:59.699Z,42.03
2023-02-15T15:00:07.743Z,83.57
2023-02-15T15:02:09.261Z,35.30
2023-02-15T15:04:23.575Z,34.78
2023-02-15T15:06:29.754Z,33.97
2023-02-15T15:08:39.505Z,39.80
2023-02-15T15:12:49.081Z,32.95
2023-02-15T15:14:52.969Z,35.63
2023-02-15T15:16:54.880Z,50.35
2023-02-15T15:18:57.245Z,42.28
2023-02-15T15:20:58.897Z,40.55
2023-02-15T15:23:20.652Z,41.30
2023-02-15T15:25:52.985Z,44.78
2023-02-15T15:27:58.249Z,51.30
2023-02-15T15:30:00.676Z,67.60
2023-02-15T15:32:03.127Z,52.90
2023-02-15T15:34:28.587Z,49.65
2023-02-15T15:36:51.972Z,54.03
2023-02-15T15:39:31.324Z,60.42
2023-02-15T15:41:43.475Z,51.03
2023-02-15T15:43:50.718Z,44.50
2023-02-15T15:46:11.060Z,43.08
2023-02-15T15:48:30.280Z,42.70
2023-02-15T15:50:32.341Z,57.88
2023-02-15T15:52:39.628Z,60.78
2023-02-15T15:54:42.988Z,61.78
2023-02-15T15:56:49.295Z,56.40
2023-02-15T15:58:57.168Z,55.08
2023-02-15T16:01:15.816Z,48.75
2023-02-15T16:03:22.000Z,58.60
2023-02-15T16:05:23.756Z,65.72
2023-02-15T16:07:27.150Z,66.93
2023-02-15T16:09:28.710Z,63.63
2023-02-15T16:11:31.074Z,63.35
2023-02-15T16:13:34.159Z,61.60
2023-02-15T16:15:43.136Z,65.57
2023-02-15T16:17:48.620Z,67.20
2023-02-15T16:19:51.471Z,70.25
2023-02-15T16:21:54.124Z,63.38
2023-02-15T16:24:11.093Z,65.03
2023-02-15T16:26:41.434Z,95.13
2023-02-15T16:28:53.987Z,83.28
2023-02-15T16:31:16.182Z,78.10
2023-02-15T16:33:17.951Z,83.65
2023-02-15T16:35:21.460Z,87.45
2023-02-15T16:37:28.244Z,91.07
2023-02-15T16:39:30.875Z,95.03
2023-02-15T16:41:32.802Z,102.70
2023-02-15T16:43:34.466Z,63.00
2023-02-15T16:45:38.735Z,58.20
2023-02-15T16:47:45.094Z,63.03
2023-02-15T16:49:49.663Z,53.40
2023-02-15T16:52:02.781Z,55.50
2023-02-15T16:54:09.943Z,56.97
2023-02-15T16:56:11.849Z,60.95
2023-02-15T16:58:17.703Z,64.35
2023-02-15T17:00:21.736Z,62.47
2023-02-15T17:02:53.129Z,69.43
2023-02-15T17:05:16.889Z,68.07
2023-02-15T17:07:20.772Z,67.25
2023-02-15T17:09:26.291Z,85.95
2023-02-15T17:11:36.819Z,71.40
2023-02-15T17:13:38.575Z,77.70
2023-02-15T17:15:43.151Z,91.18
2023-02-15T17:17:44.744Z,96.90
2023-02-15T17:19:52.898Z,94.88
2023-02-15T17:22:00.488Z,86.57
2023-02-15T17:24:05.367Z,96.40
2023-02-15T17:26:23.218Z,88.78
2023-02-15T17:28:27.972Z,399.08
2023-02-15T17:30:35.416Z,250.13
2023-02-15T17:32:39.250Z,169.30
2023-02-15T17:34:45.722Z,151.48
2023-02-15T17:37:00.415Z,91.45
2023-02-15T17:39:06.527Z,106.80
2023-02-15T17:41:08.475Z,111.20
2023-02-15T17:43:10.172Z,101.47
2023-02-15T17:45:13.650Z,92.93
2023-02-15T17:47:27.674Z,125.55
2023-02-15T17:49:34.954Z,79.95
2023-02-15T17:51:36.558Z,62.92
2023-02-15T17:53:38.331Z,52.72
2023-02-15T17:55:40.229Z,80.68
2023-02-15T17:57:41.998Z,66.20
2023-02-15T18:00:01.950Z,54.17
2023-02-15T18:02:28.333Z,61.55
2023-02-15T18:04:49.432Z,119.03
2023-02-15T18:07:10.332Z,82.25
2023-02-15T18:09:36.115Z,60.35
2023-02-15T18:11:40.326Z,61.25
2023-02-15T18:13:41.983Z,48.75
2023-02-15T18:15:44.672Z,54.53
2023-02-15T18:17:47.798Z,94.82
2023-02-15T18:19:49.575Z,66.45
2023-02-15T18:21:52.887Z,59.25
2023-02-15T18:23:54.446Z,52.15
2023-02-15T18:25:55.967Z,51.67
2023-02-15T18:27:57.575Z,45.67
2023-02-15T18:29:59.285Z,59.03
2023-02-15T18:32:01.786Z,85.85
2023-02-15T18:34:03.735Z,109.65
2023-02-15T18:36:08.322Z,138.07
2023-02-15T18:38:11.490Z,134.38
2023-02-15T18:40:17.865Z,115.97
2023-02-15T18:42:37.181Z,133.20
2023-02-15T18:44:38.823Z,126.93
2023-02-15T18:46:40.384Z,126.57
2023-02-15T18:48:41.975Z,112.90
2023-02-15T18:50:43.489Z,114.07
2023-02-15T18:52:51.603Z,106.30
2023-02-15T18:54:58.119Z,91.07
2023-02-15T18:57:01.750Z,83.55
2023-02-15T18:59:03.314Z,84.90
2023-02-15T19:01:05.494Z,108.70
2023-02-15T19:03:07.372Z,90.15
2023-02-15T19:05:09.167Z,90.10
2023-02-15T19:07:30.122Z,79.25
2023-02-15T19:09:32.757Z,70.05
2023-02-15T19:11:34.350Z,71.32
2023-02-15T19:13:36.272Z,60.63
2023-02-15T19:15:38.160Z,61.75
2023-02-15T19:17:39.733Z,58.28
2023-02-15T19:19:41.207Z,59.70
2023-02-15T19:21:42.802Z,56.53
2023-02-15T19:23:48.528Z,58.22
2023-02-15T19:25:51.864Z,53.70
2023-02-15T19:27:54.820Z,54.78
2023-02-15T19:29:58.411Z,54.75
2023-02-15T19:32:00.184Z,59.25
2023-02-15T19:34:01.949Z,65.07
2023-02-15T19:36:05.779Z,65.20
2023-02-15T19:38:12.726Z,69.03
2023-02-15T19:40:35.657Z,71.75
2023-02-15T19:42:37.472Z,73.85
2023-02-15T19:44:43.516Z,79.93
2023-02-15T19:46:46.099Z,72.65
2023-02-15T19:48:50.915Z,69.43
2023-02-15T19:50:53.116Z,71.00
2023-02-15T19:52:55.856Z,71.47
2023-02-15T19:54:57.446Z,63.05
2023-02-15T19:56:59.134Z,69.72
2023-02-15T19:59:00.919Z,70.25
2023-02-15T20:01:03.402Z,69.97
2023-02-15T20:03:05.547Z,70.65
2023-02-15T20:05:07.670Z,73.07
2023-02-15T20:07:28.250Z,75.25
2023-02-15T20:09:34.038Z,70.43
2023-02-15T20:11:35.574Z,83.35
2023-02-15T20:13:37.128Z,81.72
2023-02-15T20:15:39.769Z,81.93
2023-02-15T20:17:41.404Z,79.97
2023-02-15T20:19:43.180Z,73.60
2023-02-15T20:21:52.305Z,79.95
2023-02-15T20:23:54.102Z,75.55
2023-02-15T20:25:59.091Z,69.50
2023-02-15T20:28:01.398Z,69.47
2023-02-15T20:30:03.280Z,83.10
2023-02-15T20:32:04.981Z,75.75
2023-02-15T20:34:06.724Z,84.03
2023-02-15T20:36:14.950Z,87.22
2023-02-15T20:38:25.739Z,90.50
2023-02-15T20:40:30.914Z,95.88
2023-02-15T20:42:32.486Z,126.22
2023-02-15T20:44:35.466Z,89.45
2023-02-15T20:46:37.234Z,82.95
2023-02-15T20:48:38.811Z,74.72
2023-02-15T20:50:40.528Z,76.95
2023-02-15T20:52:42.528Z,74.22
2023-02-15T20:54:44.169Z,86.15
2023-02-15T20:56:46.896Z,97.15
2023-02-15T20:58:49.075Z,105.82
2023-02-15T21:00:51.801Z,78.57
2023-02-15T21:03:01.609Z,79.13
2023-02-15T21:05:03.521Z,78.07
2023-02-15T21:07:05.269Z,65.93
2023-02-15T21:09:06.909Z,75.90
2023-02-15T21:11:22.237Z,83.20
2023-02-15T21:13:32.818Z,72.10
2023-02-15T21:15:36.772Z,69.70
2023-02-15T21:17:38.287Z,71.70
2023-02-15T21:19:41.244Z,75.05
2023-02-15T21:21:43.858Z,67.97
2023-02-15T21:23:45.696Z,75.97
2023-02-15T21:25:47.531Z,74.35
2023-02-15T21:27:49.196Z,70.95
2023-02-15T21:29:50.780Z,63.22
2023-02-15T21:31:52.880Z,74.95
2023-02-15T21:33:54.702Z,73.40
2023-02-15T21:35:57.760Z,77.85
2023-02-15T21:37:59.301Z,74.10
2023-02-15T21:40:02.465Z,75.68
2023-02-15T21:42:28.419Z,77.57
2023-02-15T21:44:48.343Z,75.97
2023-02-15T21:47:08.247Z,78.78
2023-02-15T21:49:10.802Z,78.63
2023-02-15T21:51:38.182Z,106.20
2023-02-15T21:53:42.607Z,102.40
2023-02-15T21:55:44.341Z,111.50
2023-02-15T21:57:46.072Z,91.80
2023-02-15T21:59:47.772Z,110.85
2023-02-15T22:01:51.106Z,90.13
2023-02-15T22:03:54.760Z,96.53
2023-02-15T22:05:56.407Z,78.75
2023-02-15T22:07:58.300Z,80.30
2023-02-15T22:09:59.841Z,81.18
2023-02-15T22:12:01.348Z,75.18
2023-02-15T22:14:03.998Z,74.80
2023-02-15T22:16:06.157Z,70.72
2023-02-15T22:18:18.845Z,69.90
2023-02-15T22:20:22.878Z,79.50
2023-02-15T22:22:24.470Z,69.65
2023-02-15T22:24:26.957Z,75.25
2023-02-15T22:26:28.556Z,79.05
2023-02-15T22:28:33.849Z,77.75
2023-02-15T22:30:37.261Z,84.72
2023-02-15T22:32:38.802Z,75.88
2023-02-15T22:34:40.306Z,74.32
2023-02-15T22:36:41.767Z,70.57
2023-02-15T22:38:43.259Z,75.30
2023-02-15T22:40:45.612Z,74.47
2023-02-15T22:42:50.033Z,81.03
2023-02-15T22:44:56.838Z,72.90
2023-02-15T22:47:00.639Z,71.32
2023-02-15T22:49:02.154Z,77.55
2023-02-15T22:51:04.180Z,80.95
2023-02-15T22:53:05.827Z,79.32
2023-02-15T22:55:07.580Z,85.55
2023-02-15T22:57:31.795Z,88.75
2023-02-15T22:59:34.330Z,88.57
2023-02-15T23:01:38.043Z,85.75
2023-02-15T23:03:39.628Z,86.72
2023-02-15T23:05:41.288Z,92.53
2023-02-15T23:07:42.873Z,120.57
2023-02-15T23:09:45.602Z,90.63
2023-02-15T23:11:48.873Z,84.60
2023-02-15T23:13:50.408Z,74.20
2023-02-15T23:15:55.588Z,76.75
2023-02-15T23:17:57.118Z,69.10
2023-02-15T23:19:58.672Z,79.30
2023-02-15T23:22:00.326Z,73.20
2023-02-15T23:24:22.376Z,67.72
2023-02-15T23:26:31.552Z,64.95
2023-02-15T23:28:36.345Z,72.78
2023-02-15T23:30:37.884Z,71.35
2023-02-15T23:32:39.548Z,71.15
2023-02-15T23:34:42.165Z,71.25
2023-02-15T23:36:46.779Z,70.85
2023-02-15T23:38:48.373Z,65.28
2023-02-15T23:41:12.854Z,65.20
2023-02-15T23:43:21.370Z,62.97
2023-02-15T23:45:23.851Z,72.25
2023-02-15T23:47:52.859Z,66.40
2023-02-15T23:49:54.351Z,52.92
2023-02-15T23:51:57.479Z,59.50
2023-02-15T23:53:59.391Z,65.57
2023-02-15T23:56:01.389Z,66.15
2023-02-15T23:58:05.157Z,72.35
